Aérodrome :
LOGIN :

S'inscrire | Disclaimer

   EN    FR    IT 

 










Légende :    VFR   VFR Marginal   IFR   IFR Intensif   IFR Très Intensif
Visi : 
Plafond : 
>= 8 km
>= 3000ft
5 à 8 km
1000 à 3000 ft
1500m à 5 km
500 à 1000 ft
800 à 1500m
200 à 500 ft
< 800m
< 200 ft
Symboles :   Orages  Brouillard  Fortes neiges  Fortes précipitations  Vent > 20 kt
SIGMETs :   Divers  Orages  Givrage  Turbulence  Onde Orograph.  Cendres Volcan.







- Altitude de l'aérodrome : 13 ft
- Code IATA : CEQ
- Voir les cartes d'approche


LFMD - Cannes Mandelieu

DERNIER METAR :
  • 210200Z AUTO VRB03KT CAVOK 20/18 Q1019

METARs EXPIRÉS :
  • 210130Z AUTO 36003KT 340V040 CAVOK 20/19 Q1019
  • 210100Z AUTO VRB03KT CAVOK 21/19 Q1019
  • 210030Z AUTO 36003KT 330V030 CAVOK 21/19 Q1019
  • 210000Z AUTO 36003KT 330V030 CAVOK 21/19 Q1019
  • 202330Z AUTO VRB02KT CAVOK 21/19 Q1019
  • 202300Z AUTO VRB02KT CAVOK 22/19 Q1019

TAF TAF LFMD
Valide du 20 à 15h jusqu'au 21 à 15h UTC


201400Z 2015/2115 16010KT 9999 FEW015
BECMG 2019/2021 VRB05KT
TEMPO 2100/2106 OVC010
BECMG 2107/2109 16010KT
ATIS : +33 4 93 48 73 23
Pas de NOTAMs connus pour ce terrain.
1 SIGMET publié pour la FIR Marseille (LFMM) :
 
Orages noyés dans la masse
LFMM SIGMET 1 VALID 210000/210230 LFPW
LFMM MARSEILLE FIR/UIR EMBD TS OBS N OF N4545 AND E OF E00500 TOP FL350 MOV NE 20KT NC=



MET'MAP, la Météo Aéronautique d'un coup d'oeil ! - Copyright ORBIFLY Décembre 2007 - Disclaimer

ORBIFLY MET'MAP TEAM :

Programmation & Développement : Alexandra Zaïnal
Conception & Développement : Baudouin d'Aumeries
Co-Programmation & Développement : Marc-Olivier Méhu
Soutien technique & logistique : Manuel Goepfert

Contact : metmap@orbifly.com




SOURCES & CREDITS :

   NOAA